Bridge of Orchy, United Kingdom
Current Conditions -  °F | °C
As of 12:20 PM on Tuesday 27 Jan 2015 (Local Time) from EGEO Reporting Station
Rain Showers Rain Showers  
Wind Chill: 41°   Ceiling: 2000
Heat Index: 46°   Visibility: 5mi
Dew Point: 45°   Wind: 13mph
Humidity: 93%   Direction: 230°SW
Pressure: 30.12"   Gusts: NA
Location:  56.49°N, 4.8°W
Report Text: EGEO 271220Z 230011KT 8000 VCSH SCT014 BKN020 08/07 Q1020
Loading
Personal Weather Stations






























Interactive Weather Map New forecast layout! Learn more

10-Day Weather Forecast

Advertisements
Track Severe Weather on mobile